This is the latest recevied weather packets stored in our database for station/object SQ9PDE-13. If no packets are shown the sender has not sent any weather packets the latest 10 day(s).
| Time | Temp. | Humidity | Pressure | Rain* | Wind** | Luminosity | Snow |
|---|---|---|---|---|---|---|---|
| 1788076169 | 24.44° C | 51% | 1017.9 hPa | - | - | - | - |
| 1788075868 | 23.89° C | 51% | 1018 hPa | - | - | - | - |
| 1788075567 | 25° C | 50% | 1017.6 hPa | - | - | - | - |
| 1788075267 | 23.89° C | 52% | 1017.9 hPa | - | - | - | - |
| 1788074966 | 23.89° C | 52% | 1017.9 hPa | - | - | - | - |
| 1788074666 | 25° C | 48% | 1017.7 hPa | - | - | - | - |
| 1788074365 | 25° C | 48% | 1017.7 hPa | - | - | - | - |
| 1788074065 | 25.56° C | 46% | 1018 hPa | - | - | - | - |
| 1788072645 | 23.33° C | 53% | 1018.2 hPa | - | - | - | - |
| 1788072562 | 23.33° C | 53% | 1018.2 hPa | - | - | - | - |
| 1788072262 | 23.33° C | 53% | 1018.2 hPa | - | - | - | - |
| 1788071961 | 23.33° C | 55% | 1018.4 hPa | - | - | - | - |
| 1788071661 | 22.78° C | 56% | 1018.5 hPa | - | - | - | - |
| 1788071360 | 21.67° C | 60% | 1018.5 hPa | - | - | - | - |
| 1788071294 | 21.11° C | 62% | 1018.4 hPa | - | - | - | - |
| 1788071241 | 21.11° C | 62% | 1018.4 hPa | - | - | - | - |
| 1788071024 | 20° C | 65% | 1018.5 hPa | - | - | - | - |
| 1788070940 | 20° C | 65% | 1018.5 hPa | - | - | - | - |
| 1788070702 | 18.89° C | 67% | 1018.7 hPa | - | - | - | - |
| 1788070639 | 18.89° C | 67% | 1018.7 hPa | - | - | - | - |
| 1788070550 | 18.33° C | 70% | 1018.8 hPa | - | - | - | - |
| 1788070339 | 18.33° C | 69% | 1018.7 hPa | - | - | - | - |
| 1788070128 | 18.33° C | 70% | 1018.8 hPa | - | - | - | - |
| 1788070038 | 18.33° C | 70% | 1018.8 hPa | - | - | - | - |
| 1788069828 | 17.78° C | 72% | 1018.9 hPa | - | - | - | - |
* Rain since midnight (hover to see other rain measurements)
** Current wind speed in m/s (hover to see current wind gust speed)